createdAt,value
2019-03-09T00:00:44.302Z,99935.22
2019-03-09T00:03:12.931Z,99937.28
2019-03-09T00:05:41.458Z,99937.66
2019-03-09T00:08:14.860Z,99936.82
2019-03-09T00:10:43.389Z,99921.15
2019-03-09T00:13:12.135Z,99920.27
2019-03-09T00:15:40.740Z,99908.81
2019-03-09T00:18:09.142Z,99903.23
2019-03-09T00:20:37.577Z,99895.19
2019-03-09T00:23:20.026Z,99900.17
2019-03-09T00:26:06.231Z,99900.23
2019-03-09T00:28:36.445Z,99877.40
2019-03-09T00:31:06.595Z,99879.54
2019-03-09T00:33:35.174Z,99877.44
2019-03-09T00:36:03.732Z,99875.30
2019-03-09T00:38:32.313Z,99874.84
2019-03-09T00:41:00.739Z,99866.88
2019-03-09T00:43:29.246Z,99863.91
2019-03-09T00:45:57.933Z,99849.52
2019-03-09T00:48:26.516Z,99850.36
2019-03-09T00:50:55.181Z,99839.73
2019-03-09T00:53:24.075Z,99832.18
2019-03-09T00:55:52.474Z,99824.66
2019-03-09T00:58:20.962Z,99821.23
2019-03-09T01:00:49.407Z,99818.61
2019-03-09T01:03:17.841Z,99817.27
2019-03-09T01:05:46.227Z,99808.74
2019-03-09T01:08:14.650Z,99812.53
2019-03-09T01:10:43.055Z,99805.35
2019-03-09T01:13:11.567Z,99786.59
2019-03-09T01:15:40.563Z,99784.47
2019-03-09T01:18:09.039Z,99781.09
2019-03-09T01:20:37.513Z,99779.40
2019-03-09T01:23:05.917Z,99777.18
2019-03-09T01:25:34.337Z,99767.02
2019-03-09T01:28:02.815Z,99760.67
2019-03-09T01:30:31.231Z,99750.37
2019-03-09T01:32:59.646Z,99748.66
2019-03-09T01:35:28.197Z,99742.30
2019-03-09T01:37:56.687Z,99734.23
2019-03-09T01:40:25.109Z,99727.31
2019-03-09T01:42:53.508Z,99710.83
2019-03-09T01:45:22.217Z,99711.14
2019-03-09T01:47:50.642Z,99706.57
2019-03-09T01:50:19.046Z,99695.95
2019-03-09T01:52:47.480Z,99690.82
2019-03-09T01:55:15.890Z,99686.48
2019-03-09T01:57:44.295Z,99680.57
2019-03-09T02:00:18.702Z,99670.38
2019-03-09T02:02:47.245Z,99668.19
2019-03-09T02:05:18.988Z,99659.24
2019-03-09T02:07:47.437Z,99642.64
2019-03-09T02:10:17.360Z,99634.98
2019-03-09T02:12:45.778Z,99622.23
2019-03-09T02:15:15.750Z,99620.53
2019-03-09T02:17:44.861Z,99611.06
2019-03-09T02:20:17.361Z,99603.86
2019-03-09T02:22:45.754Z,99604.23
2019-03-09T02:25:15.461Z,99600.95
2019-03-09T02:27:43.890Z,99596.31
2019-03-09T02:30:19.646Z,99591.50
2019-03-09T02:32:48.076Z,99584.28
2019-03-09T02:35:18.117Z,99576.22
2019-03-09T02:37:46.553Z,99563.48
2019-03-09T02:40:19.358Z,99567.20
2019-03-09T02:42:47.810Z,99555.35
2019-03-09T02:45:18.954Z,99539.97
2019-03-09T02:47:47.324Z,99531.42
2019-03-09T02:50:16.999Z,99530.32
2019-03-09T02:52:45.529Z,99512.98
2019-03-09T02:55:14.518Z,99517.27
2019-03-09T02:57:43.097Z,99496.91
2019-03-09T03:00:17.602Z,99499.34
2019-03-09T03:02:47.681Z,99485.92
2019-03-09T03:05:16.323Z,99488.76
2019-03-09T03:07:44.903Z,99474.05
2019-03-09T03:10:13.441Z,99465.08
2019-03-09T03:12:41.845Z,99460.06
2019-03-09T03:15:12.785Z,99461.67
2019-03-09T03:17:41.253Z,99456.69
2019-03-09T03:20:10.059Z,99449.92
2019-03-09T03:22:38.477Z,99440.50
2019-03-09T03:25:07.843Z,99426.80
2019-03-09T03:27:36.229Z,99424.77
2019-03-09T03:30:07.010Z,99420.13
2019-03-09T03:32:36.277Z,99430.64
2019-03-09T03:35:06.847Z,99419.57
2019-03-09T03:37:35.276Z,99412.29
2019-03-09T03:40:05.228Z,99398.81
2019-03-09T03:42:33.637Z,99396.78
2019-03-09T03:45:02.046Z,99393.98
2019-03-09T03:47:30.465Z,99405.94
2019-03-09T03:49:58.902Z,99383.87
2019-03-09T03:52:27.323Z,99380.45
2019-03-09T03:54:55.728Z,99377.98
2019-03-09T03:57:24.156Z,99364.24
2019-03-09T03:59:52.553Z,99375.73
2019-03-09T04:02:21.129Z,99362.64
2019-03-09T04:04:49.626Z,99356.88
2019-03-09T04:07:18.014Z,99350.16
2019-03-09T04:09:46.531Z,99349.36
2019-03-09T04:12:15.298Z,99346.80
2019-03-09T04:14:43.841Z,99345.08
2019-03-09T04:17:12.302Z,99352.30
2019-03-09T04:19:40.688Z,99346.41
2019-03-09T04:22:09.098Z,99342.73
2019-03-09T04:24:40.299Z,99344.86
2019-03-09T04:27:08.675Z,99346.23
2019-03-09T04:29:37.096Z,99349.23
2019-03-09T04:32:05.525Z,99340.79
2019-03-09T04:34:34.019Z,99349.31
2019-03-09T04:37:02.449Z,99347.47
2019-03-09T04:39:30.908Z,99347.69
2019-03-09T04:41:59.387Z,99345.39
2019-03-09T04:44:27.795Z,99341.44
2019-03-09T04:46:56.207Z,99343.78
2019-03-09T04:49:24.664Z,99349.45
2019-03-09T04:51:53.057Z,99356.38
2019-03-09T04:54:21.463Z,99360.66
2019-03-09T04:56:49.916Z,99350.98
2019-03-09T04:59:18.328Z,99330.31
2019-03-09T05:01:46.758Z,99324.51
2019-03-09T05:04:27.231Z,99324.53
2019-03-09T05:06:55.654Z,99307.75
2019-03-09T05:10:00.292Z,99301.79
2019-03-09T05:12:28.658Z,99309.91
2019-03-09T05:14:57.069Z,99300.94
2019-03-09T05:17:25.493Z,99303.94
2019-03-09T05:19:53.906Z,99299.65
2019-03-09T05:22:22.320Z,99300.86
2019-03-09T05:24:50.738Z,99295.62
2019-03-09T05:27:19.192Z,99299.11
2019-03-09T05:29:47.613Z,99305.80
2019-03-09T05:32:16.021Z,99296.94
2019-03-09T05:34:44.447Z,99304.52
2019-03-09T05:37:12.874Z,99300.75
2019-03-09T05:39:41.290Z,99303.25
2019-03-09T05:42:09.732Z,99301.05
2019-03-09T05:44:38.150Z,99316.66
2019-03-09T05:47:06.582Z,99303.59
2019-03-09T05:49:34.993Z,99309.05
2019-03-09T05:52:24.536Z,99303.06
2019-03-09T05:54:52.947Z,99303.13
2019-03-09T05:57:21.368Z,99284.20
2019-03-09T05:59:49.857Z,99291.39
2019-03-09T06:02:18.365Z,99295.62
2019-03-09T06:04:46.782Z,99300.66
2019-03-09T06:07:15.228Z,99310.69
2019-03-09T06:09:43.642Z,99298.78
2019-03-09T06:12:12.042Z,99299.69
2019-03-09T06:14:40.470Z,99296.23
2019-03-09T06:17:08.886Z,99292.81
2019-03-09T06:19:37.729Z,99282.35
2019-03-09T06:22:06.256Z,99280.49
2019-03-09T06:24:34.703Z,99296.70
2019-03-09T06:27:03.161Z,99314.38
2019-03-09T06:29:31.559Z,99315.19
2019-03-09T06:32:31.850Z,99322.01
2019-03-09T06:35:00.423Z,99308.37
2019-03-09T06:37:29.519Z,99325.28
2019-03-09T06:39:58.110Z,99332.41
2019-03-09T06:42:35.845Z,99346.05
2019-03-09T06:45:06.321Z,99342.50
2019-03-09T06:47:34.722Z,99341.33
2019-03-09T06:50:03.348Z,99354.86
2019-03-09T06:52:31.786Z,99363.27
2019-03-09T06:55:00.313Z,99357.32
2019-03-09T06:57:28.713Z,99351.48
2019-03-09T06:59:57.136Z,99363.68
2019-03-09T07:02:25.587Z,99359.98
2019-03-09T07:04:54.023Z,99357.55
2019-03-09T07:07:22.441Z,99363.56
2019-03-09T07:09:50.870Z,99378.84
2019-03-09T07:12:19.370Z,99379.39
2019-03-09T07:14:59.971Z,99382.94
2019-03-09T07:17:28.474Z,99389.89
2019-03-09T07:19:57.391Z,99406.41
2019-03-09T07:22:26.258Z,99398.66
2019-03-09T07:24:55.170Z,99397.28
2019-03-09T07:27:23.782Z,99405.41
2019-03-09T07:29:53.612Z,99404.77
2019-03-09T07:32:22.255Z,99400.64
2019-03-09T07:34:50.904Z,99407.70
2019-03-09T07:37:19.595Z,99402.09
2019-03-09T07:39:48.191Z,99413.86
2019-03-09T07:42:16.686Z,99423.30
2019-03-09T07:44:45.402Z,99439.13
2019-03-09T07:47:15.305Z,99434.81
2019-03-09T07:49:43.904Z,99441.50
2019-03-09T07:52:30.666Z,99437.07
2019-03-09T07:54:59.154Z,99451.87
2019-03-09T07:57:27.562Z,99445.20
2019-03-09T07:59:56.077Z,99456.98
2019-03-09T08:02:24.497Z,99465.69
2019-03-09T08:04:52.939Z,99463.52
2019-03-09T08:07:21.422Z,99476.61
2019-03-09T08:09:49.856Z,99471.39
2019-03-09T08:12:18.424Z,99477.08
2019-03-09T08:14:46.936Z,99486.52
2019-03-09T08:17:15.608Z,99486.94
2019-03-09T08:19:44.093Z,99492.38
2019-03-09T08:22:12.807Z,99494.84
2019-03-09T08:24:41.236Z,99497.45
2019-03-09T08:27:09.840Z,99492.40
2019-03-09T08:29:38.232Z,99503.31
2019-03-09T08:32:06.661Z,99506.30
2019-03-09T08:34:35.151Z,99503.13
2019-03-09T08:37:03.607Z,99513.83
2019-03-09T08:39:31.985Z,99510.59
2019-03-09T08:42:01.217Z,99508.23
2019-03-09T08:44:29.660Z,99511.58
2019-03-09T08:46:58.223Z,99501.42
2019-03-09T08:49:26.784Z,99515.88
2019-03-09T08:51:57.523Z,99516.06
2019-03-09T08:54:25.963Z,99507.38
2019-03-09T08:56:54.396Z,99512.59
2019-03-09T08:59:22.865Z,99507.18
2019-03-09T09:01:51.405Z,99515.80
2019-03-09T09:04:19.796Z,99498.11
2019-03-09T09:06:48.239Z,99506.81
2019-03-09T09:09:16.649Z,99508.11
2019-03-09T09:11:45.052Z,99511.39
2019-03-09T09:14:14.722Z,99503.36
2019-03-09T09:16:43.149Z,99512.77
2019-03-09T09:19:11.592Z,99521.07
2019-03-09T09:21:39.989Z,99525.91
2019-03-09T09:24:08.394Z,99525.52
2019-03-09T09:26:36.877Z,99536.14
2019-03-09T09:29:05.279Z,99538.22
2019-03-09T09:31:33.808Z,99542.28
2019-03-09T09:34:02.308Z,99546.59
2019-03-09T09:36:30.706Z,99550.17
2019-03-09T09:38:59.153Z,99556.53
2019-03-09T09:41:27.565Z,99551.16
2019-03-09T09:43:55.976Z,99550.56
2019-03-09T09:46:24.523Z,99555.95
2019-03-09T09:48:52.958Z,99560.27
2019-03-09T09:51:21.449Z,99561.85
2019-03-09T09:53:49.882Z,99569.14
2019-03-09T09:56:18.284Z,99568.02
2019-03-09T09:58:46.762Z,99569.83
2019-03-09T10:01:15.168Z,99563.16
2019-03-09T10:03:43.607Z,99566.52
2019-03-09T10:06:12.075Z,99563.84
2019-03-09T10:08:40.476Z,99567.57
2019-03-09T10:11:08.894Z,99557.03
2019-03-09T10:13:37.339Z,99572.58
2019-03-09T10:16:05.850Z,99566.78
2019-03-09T10:18:34.248Z,99562.56
2019-03-09T10:21:02.666Z,99561.02
2019-03-09T10:23:31.079Z,99572.30
2019-03-09T10:25:59.529Z,99557.13
2019-03-09T10:28:27.947Z,99549.55
2019-03-09T10:30:56.396Z,99556.55
2019-03-09T10:33:24.833Z,99537.20
2019-03-09T10:35:53.243Z,99546.02
2019-03-09T10:38:21.762Z,99553.09
2019-03-09T10:40:50.177Z,99546.98
2019-03-09T10:43:18.601Z,99545.27
2019-03-09T10:45:47.060Z,99556.01
2019-03-09T10:48:15.472Z,99547.58
2019-03-09T10:50:43.927Z,99543.28
2019-03-09T10:53:12.392Z,99536.84
2019-03-09T10:55:42.555Z,99552.77
2019-03-09T10:58:10.943Z,99542.66
2019-03-09T11:00:41.950Z,99544.52
2019-03-09T11:03:10.416Z,99533.41
2019-03-09T11:05:38.950Z,99538.73
2019-03-09T11:08:07.479Z,99534.77
2019-03-09T11:10:35.949Z,99539.42
2019-03-09T11:13:04.452Z,99546.75
2019-03-09T11:15:33.072Z,99551.70
2019-03-09T11:18:01.509Z,99539.48
2019-03-09T11:20:29.926Z,99550.02
2019-03-09T11:23:01.288Z,99545.34
2019-03-09T11:25:29.719Z,99559.81
2019-03-09T11:28:10.028Z,99562.00
2019-03-09T11:30:39.407Z,99555.59
2019-03-09T11:33:07.826Z,99559.52
2019-03-09T11:35:36.281Z,99549.56
2019-03-09T11:38:04.720Z,99538.39
2019-03-09T11:40:33.152Z,99548.31
2019-03-09T11:43:01.572Z,99540.98
2019-03-09T11:45:29.989Z,99521.36
2019-03-09T11:47:58.405Z,99514.58
2019-03-09T11:50:26.853Z,99492.11
2019-03-09T11:52:55.303Z,99500.35
2019-03-09T11:55:23.711Z,99490.80
2019-03-09T11:57:52.233Z,99483.12
2019-03-09T12:00:26.648Z,99480.50
2019-03-09T12:02:55.238Z,99481.05
2019-03-09T12:05:23.669Z,99485.85
2019-03-09T12:07:52.082Z,99485.30
2019-03-09T12:10:20.713Z,99482.79
2019-03-09T12:12:49.205Z,99486.77
2019-03-09T12:15:18.671Z,99472.59
2019-03-09T12:17:47.117Z,99477.39
2019-03-09T12:20:19.006Z,99479.22
2019-03-09T12:22:48.057Z,99470.70
2019-03-09T12:25:17.730Z,99482.56
2019-03-09T12:27:46.273Z,99466.78
2019-03-09T12:30:18.927Z,99465.80
2019-03-09T12:32:49.188Z,99449.31
2019-03-09T12:35:17.714Z,99452.63
2019-03-09T12:37:46.251Z,99450.54
2019-03-09T12:40:19.554Z,99439.38
2019-03-09T12:42:47.925Z,99437.28
2019-03-09T12:45:17.516Z,99433.86
2019-03-09T12:47:46.163Z,99429.77
2019-03-09T12:50:17.639Z,99425.47
2019-03-09T12:52:46.080Z,99419.88
2019-03-09T12:55:14.861Z,99423.54
2019-03-09T12:57:43.660Z,99416.66
2019-03-09T13:00:15.208Z,99417.27
2019-03-09T13:02:43.667Z,99415.34
2019-03-09T13:05:12.136Z,99429.12
2019-03-09T13:07:40.614Z,99416.84
2019-03-09T13:10:09.828Z,99417.47
2019-03-09T13:12:38.371Z,99411.63
2019-03-09T13:15:08.843Z,99395.16
2019-03-09T13:17:37.336Z,99374.95
2019-03-09T13:20:08.476Z,99391.09
2019-03-09T13:22:36.932Z,99375.59
2019-03-09T13:25:08.287Z,99370.27
2019-03-09T13:27:36.722Z,99361.52
2019-03-09T13:30:08.451Z,99362.50
2019-03-09T13:32:36.875Z,99345.83
2019-03-09T13:35:05.535Z,99360.17
2019-03-09T13:37:33.991Z,99332.14
2019-03-09T13:40:02.459Z,99326.38
2019-03-09T13:42:30.883Z,99325.26
2019-03-09T13:44:59.585Z,99315.22
2019-03-09T13:47:28.057Z,99307.81
2019-03-09T13:49:56.607Z,99287.98
2019-03-09T13:52:25.044Z,99290.89
2019-03-09T13:54:53.510Z,99296.22
2019-03-09T13:57:23.447Z,99283.27
2019-03-09T13:59:51.892Z,99287.48
2019-03-09T14:02:20.874Z,99288.62
2019-03-09T14:04:49.286Z,99279.86
2019-03-09T14:07:17.820Z,99268.95
2019-03-09T14:09:46.413Z,99254.39
2019-03-09T14:12:15.001Z,99266.56
2019-03-09T14:14:43.426Z,99295.33
2019-03-09T14:17:11.909Z,99356.47
2019-03-09T14:19:40.456Z,99345.36
2019-03-09T14:22:09.391Z,99341.59
2019-03-09T14:24:38.709Z,99333.26
2019-03-09T14:27:07.214Z,99326.20
2019-03-09T14:29:37.730Z,99317.88
2019-03-09T14:32:06.247Z,99331.13
2019-03-09T14:34:34.690Z,99299.11
2019-03-09T14:37:03.683Z,99291.58
2019-03-09T14:39:32.168Z,99293.52
2019-03-09T14:42:00.720Z,99285.14
2019-03-09T14:44:29.213Z,99288.01
2019-03-09T14:46:57.653Z,99291.32
2019-03-09T14:49:26.130Z,99299.77
2019-03-09T14:51:54.774Z,99310.41
2019-03-09T14:54:23.832Z,99304.22
2019-03-09T14:56:52.252Z,99288.79
2019-03-09T14:59:20.812Z,99279.58
2019-03-09T15:01:49.333Z,99272.20
2019-03-09T15:04:17.758Z,99248.60
2019-03-09T15:06:46.329Z,99243.70
2019-03-09T15:09:15.688Z,99234.27
2019-03-09T15:11:44.091Z,99231.72
2019-03-09T15:14:12.526Z,99228.62
2019-03-09T15:16:40.953Z,99213.73
2019-03-09T15:19:10.649Z,99200.63
2019-03-09T15:21:39.063Z,99179.36
2019-03-09T15:24:08.252Z,99182.98
2019-03-09T15:26:36.751Z,99166.27
2019-03-09T15:29:05.152Z,99149.95
2019-03-09T15:31:33.585Z,99133.58
2019-03-09T15:34:02.032Z,99118.86
2019-03-09T15:36:30.438Z,99087.84
2019-03-09T15:38:58.877Z,99066.13
2019-03-09T15:41:27.283Z,99080.56
2019-03-09T15:43:55.730Z,99089.42
2019-03-09T15:46:24.299Z,99092.23
2019-03-09T15:48:52.796Z,99086.86
2019-03-09T15:51:21.239Z,99096.61
2019-03-09T15:53:49.682Z,99132.80
2019-03-09T15:56:18.079Z,99163.05
2019-03-09T15:58:46.540Z,99172.45
2019-03-09T16:01:15.071Z,99184.27
2019-03-09T16:03:43.541Z,99178.98
2019-03-09T16:06:11.959Z,99156.86
2019-03-09T16:08:40.471Z,99154.16
2019-03-09T16:11:08.911Z,99149.34
2019-03-09T16:13:37.691Z,99152.27
2019-03-09T16:16:06.811Z,99140.27
2019-03-09T16:18:35.437Z,99137.51
2019-03-09T16:21:04.034Z,99131.59
2019-03-09T16:23:32.742Z,99122.52
2019-03-09T16:26:01.436Z,99129.33
2019-03-09T16:28:29.927Z,99118.38
2019-03-09T16:30:58.600Z,99113.95
2019-03-09T16:33:27.354Z,99112.98
2019-03-09T16:35:56.093Z,99103.70
2019-03-09T16:38:24.771Z,99107.55
2019-03-09T16:40:53.219Z,99101.28
2019-03-09T16:43:22.340Z,99096.91
2019-03-09T16:45:51.021Z,99101.22
2019-03-09T16:48:19.618Z,99105.38
2019-03-09T16:50:48.398Z,99106.59
2019-03-09T16:53:17.611Z,99128.05
2019-03-09T16:55:47.902Z,99122.09
2019-03-09T16:58:16.637Z,99125.18
2019-03-09T17:00:45.264Z,99128.20
2019-03-09T17:03:13.936Z,99125.08
2019-03-09T17:05:42.422Z,99128.94
2019-03-09T17:08:11.117Z,99131.14
2019-03-09T17:10:39.623Z,99145.14
2019-03-09T17:13:08.054Z,99153.36
2019-03-09T17:15:37.105Z,99175.55
2019-03-09T17:18:05.790Z,99184.36
2019-03-09T17:20:34.242Z,99174.47
2019-03-09T17:23:02.785Z,99205.09
2019-03-09T17:25:32.150Z,99173.57
2019-03-09T17:28:00.611Z,99154.73
2019-03-09T17:30:29.083Z,99113.85
2019-03-09T17:32:57.587Z,99133.95
2019-03-09T17:35:27.642Z,99125.33
2019-03-09T17:37:56.080Z,99134.18
2019-03-09T17:40:24.677Z,99137.99
2019-03-09T17:42:53.106Z,99151.23
2019-03-09T17:45:24.565Z,99161.95
2019-03-09T17:47:53.169Z,99184.86
2019-03-09T17:50:21.669Z,99187.48
2019-03-09T17:52:50.097Z,99201.84
2019-03-09T17:55:18.534Z,99207.40
2019-03-09T17:57:46.997Z,99215.89
2019-03-09T18:00:21.337Z,99229.41
2019-03-09T18:02:49.762Z,99233.40
2019-03-09T18:05:20.070Z,99241.23
2019-03-09T18:07:48.715Z,99247.67
2019-03-09T18:10:41.539Z,99242.48
2019-03-09T18:13:10.028Z,99260.75
2019-03-09T18:15:38.445Z,99263.27
2019-03-09T18:18:07.666Z,99259.92
2019-03-09T18:20:36.189Z,99271.24
2019-03-09T18:23:04.616Z,99273.29
2019-03-09T18:25:33.030Z,99285.23
2019-03-09T18:28:01.433Z,99282.76
2019-03-09T18:30:30.927Z,99314.14
2019-03-09T18:32:59.350Z,99296.75
2019-03-09T18:35:27.879Z,99345.51
2019-03-09T18:37:56.318Z,99324.59
2019-03-09T18:40:24.795Z,99351.20
2019-03-09T18:42:53.483Z,99356.95
2019-03-09T18:45:23.155Z,99397.79
2019-03-09T18:47:51.573Z,99398.25
2019-03-09T18:50:20.148Z,99392.44
2019-03-09T18:52:48.562Z,99415.61
2019-03-09T18:55:17.065Z,99430.47
2019-03-09T18:57:45.495Z,99443.92
2019-03-09T19:00:21.251Z,99447.80
2019-03-09T19:02:49.967Z,99462.97
2019-03-09T19:05:18.591Z,99473.20
2019-03-09T19:07:47.062Z,99477.41
2019-03-09T19:10:17.415Z,99512.24
2019-03-09T19:12:45.850Z,99523.36
2019-03-09T19:15:16.317Z,99544.58
2019-03-09T19:17:44.826Z,99556.53
2019-03-09T19:20:17.865Z,99586.14
2019-03-09T19:22:46.587Z,99578.97
2019-03-09T19:25:15.951Z,99607.48
2019-03-09T19:27:44.551Z,99601.69
2019-03-09T19:30:18.377Z,99623.25
2019-03-09T19:32:46.863Z,99630.05
2019-03-09T19:35:15.350Z,99626.23
2019-03-09T19:37:43.783Z,99644.12
2019-03-09T19:40:17.648Z,99658.97
2019-03-09T19:42:46.728Z,99662.68
2019-03-09T19:45:22.505Z,99667.86
2019-03-09T19:47:51.039Z,99680.64
2019-03-09T19:50:22.564Z,99697.55
2019-03-09T19:52:50.950Z,99702.13
2019-03-09T19:55:19.364Z,99724.98
2019-03-09T19:57:47.808Z,99730.97
2019-03-09T20:00:18.598Z,99733.91
2019-03-09T20:02:47.001Z,99724.63
2019-03-09T20:05:15.681Z,99746.64
2019-03-09T20:07:44.229Z,99759.33
2019-03-09T20:10:23.093Z,99768.69
2019-03-09T20:12:51.755Z,99769.12
2019-03-09T20:15:21.959Z,99778.84
2019-03-09T20:17:50.390Z,99781.38
2019-03-09T20:20:21.183Z,99790.70
2019-03-09T20:22:49.690Z,99800.02
2019-03-09T20:25:18.186Z,99811.04
2019-03-09T20:27:46.886Z,99811.05
2019-03-09T20:30:19.687Z,99820.80
2019-03-09T20:32:48.178Z,99815.34
2019-03-09T20:35:16.742Z,99830.54
2019-03-09T20:37:45.171Z,99832.67
2019-03-09T20:40:18.774Z,99849.60
2019-03-09T20:42:47.443Z,99842.83
2019-03-09T20:45:21.683Z,99846.63
2019-03-09T20:47:50.105Z,99855.91
2019-03-09T20:50:20.907Z,99862.69
2019-03-09T20:52:51.210Z,99861.82
2019-03-09T20:55:19.602Z,99861.83
2019-03-09T20:57:48.040Z,99866.47
2019-03-09T21:00:18.332Z,99871.11
2019-03-09T21:02:46.789Z,99869.00
2019-03-09T21:05:15.286Z,99874.05
2019-03-09T21:07:43.710Z,99876.61
2019-03-09T21:10:16.718Z,99874.48
2019-03-09T21:13:05.105Z,99882.95
2019-03-09T21:15:33.587Z,99885.49
2019-03-09T21:18:02.096Z,99887.22
2019-03-09T21:20:30.502Z,99885.52
2019-03-09T21:22:58.987Z,99892.27
2019-03-09T21:25:27.469Z,99895.67
2019-03-09T21:27:55.972Z,99888.06
2019-03-09T21:30:24.499Z,99908.36
2019-03-09T21:32:52.908Z,99900.34
2019-03-09T21:35:21.441Z,99910.89
2019-03-09T21:37:49.863Z,99918.94
2019-03-09T21:40:19.036Z,99913.89
2019-03-09T21:42:47.467Z,99926.16
2019-03-09T21:45:16.011Z,99917.28
2019-03-09T21:47:44.447Z,99922.81
2019-03-09T21:50:15.906Z,99920.72
2019-03-09T21:52:44.394Z,99917.31
2019-03-09T21:55:14.029Z,99916.48
2019-03-09T21:57:42.468Z,99920.30
2019-03-09T22:00:18.511Z,99930.86
2019-03-09T22:02:46.930Z,99927.06
2019-03-09T22:05:15.352Z,99936.80
2019-03-09T22:07:43.743Z,99935.98
2019-03-09T22:10:13.210Z,99937.25
2019-03-09T22:12:41.791Z,99941.06
2019-03-09T22:15:15.781Z,99941.94
2019-03-09T22:17:45.148Z,99941.08
2019-03-09T22:20:15.038Z,99936.02
2019-03-09T22:22:43.512Z,99934.33
2019-03-09T22:25:16.762Z,99934.75
2019-03-09T22:27:45.184Z,99937.30
2019-03-09T22:30:23.181Z,99935.61
2019-03-09T22:32:51.712Z,99932.67
2019-03-09T22:35:20.139Z,99925.08
2019-03-09T22:37:48.594Z,99922.97
2019-03-09T22:40:19.230Z,99929.27
2019-03-09T22:42:47.645Z,99927.19
2019-03-09T22:45:16.457Z,99923.36
2019-03-09T22:47:45.167Z,99922.13
2019-03-09T22:50:16.659Z,99927.59
2019-03-09T22:52:45.098Z,99929.72
2019-03-09T22:55:14.735Z,99940.28
2019-03-09T22:57:43.229Z,99945.77
2019-03-09T23:00:14.933Z,99940.28
2019-03-09T23:02:44.876Z,99944.90
2019-03-09T23:05:13.853Z,99947.02
2019-03-09T23:07:42.259Z,99947.87
2019-03-09T23:10:25.680Z,99953.36
2019-03-09T23:12:54.095Z,99953.36
2019-03-09T23:15:22.493Z,99951.24
2019-03-09T23:17:50.999Z,99954.19
2019-03-09T23:20:19.577Z,99952.91
2019-03-09T23:22:47.991Z,99943.22
2019-03-09T23:25:16.848Z,99945.34
2019-03-09T23:27:45.330Z,99939.41
2019-03-09T23:30:18.214Z,99939.41
2019-03-09T23:32:48.406Z,99945.31
2019-03-09T23:35:17.055Z,99943.64
2019-03-09T23:37:49.083Z,99944.89
2019-03-09T23:40:19.783Z,99943.62
2019-03-09T23:42:48.284Z,99942.78
2019-03-09T23:45:21.961Z,99936.44
2019-03-09T23:47:50.519Z,99928.41
2019-03-09T23:50:19.262Z,99934.33
2019-03-09T23:52:47.674Z,99943.64
2019-03-09T23:55:22.036Z,99919.97
2019-03-09T23:57:50.059Z,99930.53
